Time,TemperatureF,DewpointF,PressureIn,WindDirection,WindDirectionDegrees,WindSpeedMPH,WindSpeedGustMPH,Humidity,HourlyPrecipIn,Conditions,Clouds,dailyrainin,SolarRadiationWatts/m^2,SoftwareType,DateUTC
2013-10-05 00:22:00,32.0,25.0,-100.00,ENE,78,3.0,6.0,75,-99.99,,,-99.99,0.000000,,2013-10-05 06:22:00,
2013-10-05 00:32:00,32.0,25.0,-100.00,ENE,78,3.0,6.0,75,-99.99,,,-99.99,0.000000,,2013-10-05 06:32:00,
2013-10-05 00:43:00,32.0,25.0,-100.00,ENE,78,3.0,6.0,75,-99.99,,,-99.99,0.000000,,2013-10-05 06:43:00,
2013-10-05 02:42:00,29.0,24.0,-100.00,SE,134,2.0,5.0,81,-99.99,,,-99.99,0.000000,,2013-10-05 08:42:00,
2013-10-05 02:52:00,27.0,23.0,-100.00,SE,137,1.0,5.0,84,0.00,,,-99.99,0.000000,,2013-10-05 08:52:00,
2013-10-05 04:00:00,29.0,23.0,-100.00,SE,143,3.0,6.0,79,-99.99,,,-99.99,0.000000,,2013-10-05 10:00:00,
2013-10-05 04:53:00,29.0,23.0,-100.00,SE,143,3.0,6.0,79,-99.99,,,-99.99,0.000000,,2013-10-05 10:53:00,
2013-10-05 05:22:00,28.0,23.0,-100.00,SSE,161,3.0,5.0,81,-99.99,,,-99.99,0.000000,,2013-10-05 11:22:00,
2013-10-05 05:33:00,28.0,23.0,-100.00,SSE,161,3.0,5.0,81,-99.99,,,-99.99,0.000000,,2013-10-05 11:33:00,
2013-10-05 05:43:00,28.0,23.0,-100.00,SSE,161,3.0,5.0,81,-99.99,,,-99.99,0.000000,,2013-10-05 11:43:00,
2013-10-05 07:00:00,26.0,22.0,-100.00,SE,143,3.0,4.0,84,0.00,,,-99.99,0.000000,,2013-10-05 13:00:00,
2013-10-05 07:52:00,26.0,22.0,-100.00,SE,143,3.0,4.0,84,0.00,,,-99.99,0.000000,,2013-10-05 13:52:00,
2013-10-05 10:00:00,37.0,27.0,-100.00,South,176,5.0,7.0,67,0.00,,,-99.99,345.100006,,2013-10-05 16:00:00,
2013-10-05 10:53:00,37.0,27.0,-100.00,South,176,5.0,7.0,67,0.00,,,-99.99,345.100006,,2013-10-05 16:53:00,
2013-10-05 13:00:00,50.0,22.0,-100.00,North,10,10.0,13.0,33,0.00,,,-99.99,723.900024,,2013-10-05 19:00:00,
2013-10-05 13:52:00,50.0,22.0,-100.00,North,10,10.0,13.0,33,0.00,,,-99.99,723.900024,,2013-10-05 19:52:00,
2013-10-05 15:00:00,54.0,20.0,-100.00,North,8,13.0,-999.0,26,0.00,,,-99.99,693.500000,,2013-10-05 21:00:00,
2013-10-05 15:54:00,54.0,20.0,-100.00,North,8,13.0,-999.0,26,0.00,,,-99.99,693.500000,,2013-10-05 21:54:00,
2013-10-05 17:00:00,54.0,23.0,-100.00,NNE,16,9.0,-999.0,30,0.00,,,-99.99,434.700012,,2013-10-05 23:00:00,
2013-10-05 17:53:00,54.0,23.0,-100.00,NNE,16,9.0,-999.0,30,0.00,,,-99.99,434.700012,,2013-10-05 23:53:00,
2013-10-05 18:00:00,54.0,23.0,-100.00,NNE,16,9.0,13.0,30,0.00,,,-99.99,434.700012,,2013-10-06 00:00:00,
2013-10-05 18:52:00,54.0,23.0,-100.00,NNE,16,9.0,13.0,30,0.00,,,-99.99,434.700012,,2013-10-06 00:52:00,
2013-10-05 21:54:00,43.0,27.0,-100.00,NE,43,5.0,-999.0,53,0.00,,,-99.99,0.000000,,2013-10-06 03:54:00,
2013-10-05 22:00:00,41.0,27.0,-100.00,East,88,3.0,7.0,57,0.00,,,-99.99,0.000000,,2013-10-06 04:00:00,
2013-10-05 22:54:00,41.0,27.0,-100.00,East,88,3.0,7.0,57,0.00,,,-99.99,0.000000,,2013-10-06 04:54:00,